Dodge, NE (68633)

7:54 PM CST on January 30, 2015 (GMT -0600)
flood plain surrounded by hills | Change Station
CLOSE
Current Station
Personal Weather Station
Location: Schuyler, NE
Elevation: 1440 ft
Nearby Weather Stations

Elev 1440 ft 41.55 °N, 97.05 °W | Updated 16 seconds ago

Mostly Cloudy
Mostly Cloudy
36.7 °F
Feels Like 33 °F
N
4.3
Wind Variable Wind from SW
Gusts 4.9 mph

Today
High -- | Low -- °F
--% Chance of Precip.
Yesterday
High -- | Low -- °F
Precip. -- in
7:41 AM 5:40 PM
Waxing Gibbous, 86% visible
Pressure 30.27 in
Visibility 10.0 miles
Clouds Overcast 9000 ft
Windchill 33 °F
Dew Point 25 °F
Humidity 63%
Rainfall 0.00 in
Snow Depth Not available.
UV 0.0 out of 12
Pollen .10 out of 12
Air Quality Not available.
Flu Activity Not available.
METAR KFET 310135Z AUTO 17011KT 10SM OVC090 04/M03 A3027 RMK AO2 T00351030

More Conditions Fewer Conditions

Pressure 30.27 in
Visibility 10.0 miles
Clouds Overcast 9000 ft
Windchill 33 °F
Dew Point 25 °F
Humidity 63%
Rainfall 0.00 in
Snow Depth Not available.
UV 0.0 out of 12
Pollen .10 out of 12
Air Quality Not available.
Flu Activity Not available.
METAR KFET 310135Z AUTO 17011KT 10SM OVC090 04/M03 A3027 RMK AO2 T00351030

More Conditions Fewer Conditions

10-Day Weather Forecast

Almanac

Astronomy

Jan. 30, 2015 Rise Set
Actual Time
Civil Twilight
Nautical Twilight
Astronomical Twilight
Moon
Length of Visible Light
Length of Day
Tomorrow will be .
, % of the Moon is Illuminated

Today's Extremes

State Highs State Lows

Community

WunderPhotos

Upload Photos

1,791,964 photos uploaded!

WunderBlogs® & News

Nearby

Air Quality

  Air Quality AQ Index Pollutant
Not available.

Snow Depth

Station Depth Elevation

Earthquake Activity

City Distance Mag. Time & Date
Minimum magnitude displayed is 2.5.

Coastal Water Temperatures

Place Temperature

Nearby Weather Stations